sensor_id;sensor_type;location;lat;lon;timestamp;temperature;humidity
75380;HTU21D;65641;44.714;37.756;2023-04-24T00:00:00;14.15;72.02
75380;HTU21D;65641;44.714;37.756;2023-04-24T00:01:05;14.17;72.03
75380;HTU21D;65641;44.714;37.756;2023-04-24T00:02:10;14.17;71.94
75380;HTU21D;65641;44.714;37.756;2023-04-24T00:03:13;14.15;71.97
75380;HTU21D;65641;44.714;37.756;2023-04-24T00:04:16;14.15;72.03
75380;HTU21D;65641;44.714;37.756;2023-04-24T00:05:20;14.14;72.05
75380;HTU21D;65641;44.714;37.756;2023-04-24T00:06:23;14.13;72.06
75380;HTU21D;65641;44.714;37.756;2023-04-24T00:07:26;14.14;72.01
75380;HTU21D;65641;44.714;37.756;2023-04-24T00:08:29;14.13;71.96
75380;HTU21D;65641;44.714;37.756;2023-04-24T00:09:33;14.12;71.97
75380;HTU21D;65641;44.714;37.756;2023-04-24T00:10:36;14.13;71.87
75380;HTU21D;65641;44.714;37.756;2023-04-24T00:11:38;14.11;71.90
75380;HTU21D;65641;44.714;37.756;2023-04-24T00:12:42;14.09;71.89
75380;HTU21D;65641;44.714;37.756;2023-04-24T00:13:45;14.09;71.81
75380;HTU21D;65641;44.714;37.756;2023-04-24T00:14:48;14.08;71.66
75380;HTU21D;65641;44.714;37.756;2023-04-24T00:15:51;14.07;71.67
75380;HTU21D;65641;44.714;37.756;2023-04-24T00:16:54;14.07;71.67
75380;HTU21D;65641;44.714;37.756;2023-04-24T00:17:57;14.06;71.64
75380;HTU21D;65641;44.714;37.756;2023-04-24T00:19:00;14.05;71.61
75380;HTU21D;65641;44.714;37.756;2023-04-24T00:20:04;14.05;71.63
75380;HTU21D;65641;44.714;37.756;2023-04-24T00:21:09;14.04;71.71
75380;HTU21D;65641;44.714;37.756;2023-04-24T00:22:12;14.04;71.69
75380;HTU21D;65641;44.714;37.756;2023-04-24T00:23:15;14.03;71.71
75380;HTU21D;65641;44.714;37.756;2023-04-24T00:24:18;14.04;71.64
75380;HTU21D;65641;44.714;37.756;2023-04-24T00:25:21;14.00;71.57
75380;HTU21D;65641;44.714;37.756;2023-04-24T00:26:24;14.00;71.56
75380;HTU21D;65641;44.714;37.756;2023-04-24T00:27:27;13.99;71.50
75380;HTU21D;65641;44.714;37.756;2023-04-24T00:28:30;13.99;71.49
75380;HTU21D;65641;44.714;37.756;2023-04-24T00:29:33;13.98;71.39
75380;HTU21D;65641;44.714;37.756;2023-04-24T00:30:36;13.98;71.40
75380;HTU21D;65641;44.714;37.756;2023-04-24T00:31:40;13.96;71.48
75380;HTU21D;65641;44.714;37.756;2023-04-24T00:32:42;13.95;71.51
75380;HTU21D;65641;44.714;37.756;2023-04-24T00:33:46;13.94;71.48
75380;HTU21D;65641;44.714;37.756;2023-04-24T00:34:49;13.94;71.57
75380;HTU21D;65641;44.714;37.756;2023-04-24T00:35:52;13.93;71.64
75380;HTU21D;65641;44.714;37.756;2023-04-24T00:36:55;13.93;71.68
75380;HTU21D;65641;44.714;37.756;2023-04-24T00:37:57;13.93;71.70
75380;HTU21D;65641;44.714;37.756;2023-04-24T00:39:00;13.92;71.60
75380;HTU21D;65641;44.714;37.756;2023-04-24T00:40:04;13.91;71.54
75380;HTU21D;65641;44.714;37.756;2023-04-24T00:41:07;13.89;71.54
75380;HTU21D;65641;44.714;37.756;2023-04-24T00:42:10;13.90;71.55
75380;HTU21D;65641;44.714;37.756;2023-04-24T00:43:13;13.90;71.55
75380;HTU21D;65641;44.714;37.756;2023-04-24T00:44:17;13.89;71.55
75380;HTU21D;65641;44.714;37.756;2023-04-24T00:45:20;13.88;71.61
75380;HTU21D;65641;44.714;37.756;2023-04-24T00:46:23;13.89;71.65
75380;HTU21D;65641;44.714;37.756;2023-04-24T00:47:26;13.88;71.61
75380;HTU21D;65641;44.714;37.756;2023-04-24T00:48:30;13.86;71.61
75380;HTU21D;65641;44.714;37.756;2023-04-24T00:49:34;13.85;71.64
75380;HTU21D;65641;44.714;37.756;2023-04-24T00:50:38;13.86;71.68
75380;HTU21D;65641;44.714;37.756;2023-04-24T00:51:41;13.85;71.64
75380;HTU21D;65641;44.714;37.756;2023-04-24T00:52:48;13.85;71.63
75380;HTU21D;65641;44.714;37.756;2023-04-24T00:53:51;13.84;71.66
75380;HTU21D;65641;44.714;37.756;2023-04-24T00:54:54;13.84;71.59
75380;HTU21D;65641;44.714;37.756;2023-04-24T00:55:57;13.85;71.58
75380;HTU21D;65641;44.714;37.756;2023-04-24T00:57:02;13.85;71.65
75380;HTU21D;65641;44.714;37.756;2023-04-24T00:58:05;13.83;71.69
75380;HTU21D;65641;44.714;37.756;2023-04-24T00:59:08;13.84;71.77
75380;HTU21D;65641;44.714;37.756;2023-04-24T01:00:12;13.83;71.78
75380;HTU21D;65641;44.714;37.756;2023-04-24T01:01:20;13.84;71.76
75380;HTU21D;65641;44.714;37.756;2023-04-24T01:02:26;13.84;71.74
75380;HTU21D;65641;44.714;37.756;2023-04-24T01:03:30;13.84;71.71
75380;HTU21D;65641;44.714;37.756;2023-04-24T01:04:34;13.83;71.72
75380;HTU21D;65641;44.714;37.756;2023-04-24T01:05:39;13.83;71.71
75380;HTU21D;65641;44.714;37.756;2023-04-24T01:06:43;13.81;71.64
75380;HTU21D;65641;44.714;37.756;2023-04-24T01:07:47;13.82;71.67
75380;HTU21D;65641;44.714;37.756;2023-04-24T01:08:52;13.82;71.64
75380;HTU21D;65641;44.714;37.756;2023-04-24T01:09:55;13.81;71.54
75380;HTU21D;65641;44.714;37.756;2023-04-24T01:11:01;13.80;71.59
75380;HTU21D;65641;44.714;37.756;2023-04-24T01:12:06;13.79;71.63
75380;HTU21D;65641;44.714;37.756;2023-04-24T01:13:09;13.79;71.62
75380;HTU21D;65641;44.714;37.756;2023-04-24T01:14:13;13.79;71.55
75380;HTU21D;65641;44.714;37.756;2023-04-24T01:15:16;13.78;71.52
75380;HTU21D;65641;44.714;37.756;2023-04-24T01:16:19;13.77;71.48
75380;HTU21D;65641;44.714;37.756;2023-04-24T01:17:28;13.77;71.50
75380;HTU21D;65641;44.714;37.756;2023-04-24T01:18:31;13.76;71.47
75380;HTU21D;65641;44.714;37.756;2023-04-24T01:19:34;13.76;71.47
75380;HTU21D;65641;44.714;37.756;2023-04-24T01:20:43;13.75;71.48
75380;HTU21D;65641;44.714;37.756;2023-04-24T01:21:51;13.75;71.50
75380;HTU21D;65641;44.714;37.756;2023-04-24T01:22:56;13.75;71.51
75380;HTU21D;65641;44.714;37.756;2023-04-24T01:23:59;13.74;71.57
75380;HTU21D;65641;44.714;37.756;2023-04-24T01:25:03;13.74;71.53
75380;HTU21D;65641;44.714;37.756;2023-04-24T01:26:06;13.71;71.45
75380;HTU21D;65641;44.714;37.756;2023-04-24T01:27:10;13.73;71.50
75380;HTU21D;65641;44.714;37.756;2023-04-24T01:28:13;13.73;71.46
75380;HTU21D;65641;44.714;37.756;2023-04-24T01:29:16;13.74;71.53
75380;HTU21D;65641;44.714;37.756;2023-04-24T01:30:19;13.69;71.56
75380;HTU21D;65641;44.714;37.756;2023-04-24T01:31:22;13.70;71.54
75380;HTU21D;65641;44.714;37.756;2023-04-24T01:32:26;13.70;71.54
75380;HTU21D;65641;44.714;37.756;2023-04-24T01:33:29;13.69;71.46
75380;HTU21D;65641;44.714;37.756;2023-04-24T01:34:33;13.69;71.42
75380;HTU21D;65641;44.714;37.756;2023-04-24T01:35:37;13.67;71.34
75380;HTU21D;65641;44.714;37.756;2023-04-24T01:36:41;13.67;71.36
75380;HTU21D;65641;44.714;37.756;2023-04-24T01:37:45;13.68;71.37
75380;HTU21D;65641;44.714;37.756;2023-04-24T01:38:48;13.66;71.31
75380;HTU21D;65641;44.714;37.756;2023-04-24T01:39:51;13.65;71.35
75380;HTU21D;65641;44.714;37.756;2023-04-24T01:40:54;13.65;71.38
75380;HTU21D;65641;44.714;37.756;2023-04-24T01:41:57;13.65;71.35
75380;HTU21D;65641;44.714;37.756;2023-04-24T01:43:00;13.65;71.33
75380;HTU21D;65641;44.714;37.756;2023-04-24T01:44:05;13.65;71.34
75380;HTU21D;65641;44.714;37.756;2023-04-24T01:45:11;13.64;71.38
75380;HTU21D;65641;44.714;37.756;2023-04-24T01:46:15;13.64;71.44
75380;HTU21D;65641;44.714;37.756;2023-04-24T01:47:18;13.64;71.31
75380;HTU21D;65641;44.714;37.756;2023-04-24T01:48:20;13.64;71.34
75380;HTU21D;65641;44.714;37.756;2023-04-24T01:49:23;13.64;71.39
75380;HTU21D;65641;44.714;37.756;2023-04-24T01:50:26;13.64;71.42
75380;HTU21D;65641;44.714;37.756;2023-04-24T01:51:29;13.63;71.42
75380;HTU21D;65641;44.714;37.756;2023-04-24T01:52:32;13.62;71.40
75380;HTU21D;65641;44.714;37.756;2023-04-24T01:53:35;13.63;71.41
75380;HTU21D;65641;44.714;37.756;2023-04-24T01:54:38;13.63;71.41
75380;HTU21D;65641;44.714;37.756;2023-04-24T01:55:41;13.63;71.41
75380;HTU21D;65641;44.714;37.756;2023-04-24T01:56:45;13.62;71.46
75380;HTU21D;65641;44.714;37.756;2023-04-24T01:57:49;13.62;71.45
75380;HTU21D;65641;44.714;37.756;2023-04-24T01:58:53;13.62;71.38
75380;HTU21D;65641;44.714;37.756;2023-04-24T01:59:58;13.61;71.34
75380;HTU21D;65641;44.714;37.756;2023-04-24T02:01:01;13.61;71.37
75380;HTU21D;65641;44.714;37.756;2023-04-24T02:02:04;13.61;71.36
75380;HTU21D;65641;44.714;37.756;2023-04-24T02:03:07;13.60;71.40
75380;HTU21D;65641;44.714;37.756;2023-04-24T02:04:11;13.61;71.45
75380;HTU21D;65641;44.714;37.756;2023-04-24T02:05:14;13.60;71.49
75380;HTU21D;65641;44.714;37.756;2023-04-24T02:06:17;13.62;71.47
75380;HTU21D;65641;44.714;37.756;2023-04-24T02:07:20;13.60;71.41
75380;HTU21D;65641;44.714;37.756;2023-04-24T02:08:23;13.61;71.45
75380;HTU21D;65641;44.714;37.756;2023-04-24T02:09:26;13.61;71.46
75380;HTU21D;65641;44.714;37.756;2023-04-24T02:10:29;13.60;71.51
75380;HTU21D;65641;44.714;37.756;2023-04-24T02:11:34;13.60;71.50
75380;HTU21D;65641;44.714;37.756;2023-04-24T02:12:37;13.61;71.50
75380;HTU21D;65641;44.714;37.756;2023-04-24T02:13:40;13.63;71.49
75380;HTU21D;65641;44.714;37.756;2023-04-24T02:14:43;13.62;71.44
75380;HTU21D;65641;44.714;37.756;2023-04-24T02:15:47;13.62;71.43
75380;HTU21D;65641;44.714;37.756;2023-04-24T02:16:50;13.63;71.45
75380;HTU21D;65641;44.714;37.756;2023-04-24T02:17:55;13.61;71.37
75380;HTU21D;65641;44.714;37.756;2023-04-24T02:18:58;13.61;71.29
75380;HTU21D;65641;44.714;37.756;2023-04-24T02:20:01;13.61;71.33
75380;HTU21D;65641;44.714;37.756;2023-04-24T02:21:04;13.63;71.38
75380;HTU21D;65641;44.714;37.756;2023-04-24T02:22:08;13.62;71.42
75380;HTU21D;65641;44.714;37.756;2023-04-24T02:23:11;13.60;71.41
75380;HTU21D;65641;44.714;37.756;2023-04-24T02:24:14;13.61;71.37
75380;HTU21D;65641;44.714;37.756;2023-04-24T02:25:18;13.61;71.33
75380;HTU21D;65641;44.714;37.756;2023-04-24T02:26:23;13.61;71.37
75380;HTU21D;65641;44.714;37.756;2023-04-24T02:27:26;13.62;71.32
75380;HTU21D;65641;44.714;37.756;2023-04-24T02:28:29;13.61;71.34
75380;HTU21D;65641;44.714;37.756;2023-04-24T02:29:32;13.62;71.41
75380;HTU21D;65641;44.714;37.756;2023-04-24T02:30:35;13.62;71.42
75380;HTU21D;65641;44.714;37.756;2023-04-24T02:31:38;13.63;71.42
75380;HTU21D;65641;44.714;37.756;2023-04-24T02:32:41;13.63;71.48
75380;HTU21D;65641;44.714;37.756;2023-04-24T02:33:45;13.62;71.51
75380;HTU21D;65641;44.714;37.756;2023-04-24T02:34:48;13.64;71.51
75380;HTU21D;65641;44.714;37.756;2023-04-24T02:35:51;13.63;71.48
75380;HTU21D;65641;44.714;37.756;2023-04-24T02:36:54;13.64;71.53
75380;HTU21D;65641;44.714;37.756;2023-04-24T02:37:57;13.64;71.57
75380;HTU21D;65641;44.714;37.756;2023-04-24T02:39:00;13.65;71.59
75380;HTU21D;65641;44.714;37.756;2023-04-24T02:40:04;13.65;71.54
75380;HTU21D;65641;44.714;37.756;2023-04-24T02:41:08;13.66;71.48
75380;HTU21D;65641;44.714;37.756;2023-04-24T02:42:11;13.66;71.49
75380;HTU21D;65641;44.714;37.756;2023-04-24T02:43:14;13.67;71.51
75380;HTU21D;65641;44.714;37.756;2023-04-24T02:44:17;13.67;71.55
75380;HTU21D;65641;44.714;37.756;2023-04-24T02:45:20;13.68;71.58
75380;HTU21D;65641;44.714;37.756;2023-04-24T02:46:23;13.68;71.57
75380;HTU21D;65641;44.714;37.756;2023-04-24T02:47:26;13.68;71.56
75380;HTU21D;65641;44.714;37.756;2023-04-24T02:48:29;13.70;71.56
75380;HTU21D;65641;44.714;37.756;2023-04-24T02:49:32;13.71;71.53
75380;HTU21D;65641;44.714;37.756;2023-04-24T02:50:35;13.70;71.52
75380;HTU21D;65641;44.714;37.756;2023-04-24T02:51:38;13.73;71.55
75380;HTU21D;65641;44.714;37.756;2023-04-24T02:52:43;13.73;71.57
75380;HTU21D;65641;44.714;37.756;2023-04-24T02:53:46;13.74;71.51
75380;HTU21D;65641;44.714;37.756;2023-04-24T02:54:49;13.75;71.49
75380;HTU21D;65641;44.714;37.756;2023-04-24T02:55:52;13.75;71.47
75380;HTU21D;65641;44.714;37.756;2023-04-24T02:56:55;13.76;71.45
75380;HTU21D;65641;44.714;37.756;2023-04-24T02:57:59;13.76;71.45
75380;HTU21D;65641;44.714;37.756;2023-04-24T02:59:02;13.78;71.42
75380;HTU21D;65641;44.714;37.756;2023-04-24T03:00:06;13.78;71.42
75380;HTU21D;65641;44.714;37.756;2023-04-24T03:01:09;13.80;71.38
75380;HTU21D;65641;44.714;37.756;2023-04-24T03:02:12;13.80;71.37
75380;HTU21D;65641;44.714;37.756;2023-04-24T03:03:15;13.82;71.37
75380;HTU21D;65641;44.714;37.756;2023-04-24T03:04:18;13.81;71.36
75380;HTU21D;65641;44.714;37.756;2023-04-24T03:05:23;13.83;71.30
75380;HTU21D;65641;44.714;37.756;2023-04-24T03:06:26;13.84;71.30
75380;HTU21D;65641;44.714;37.756;2023-04-24T03:07:29;13.85;71.28
75380;HTU21D;65641;44.714;37.756;2023-04-24T03:08:34;13.86;71.28
75380;HTU21D;65641;44.714;37.756;2023-04-24T03:09:38;13.89;71.23
75380;HTU21D;65641;44.714;37.756;2023-04-24T03:10:41;13.89;71.19
75380;HTU21D;65641;44.714;37.756;2023-04-24T03:11:44;13.90;71.13
75380;HTU21D;65641;44.714;37.756;2023-04-24T03:12:47;13.92;71.09
75380;HTU21D;65641;44.714;37.756;2023-04-24T03:13:50;13.92;71.04
75380;HTU21D;65641;44.714;37.756;2023-04-24T03:14:55;13.92;71.03
75380;HTU21D;65641;44.714;37.756;2023-04-24T03:15:58;13.95;71.00
75380;HTU21D;65641;44.714;37.756;2023-04-24T03:17:05;13.96;70.98
75380;HTU21D;65641;44.714;37.756;2023-04-24T03:18:08;13.97;70.95
75380;HTU21D;65641;44.714;37.756;2023-04-24T03:19:11;13.98;70.93
75380;HTU21D;65641;44.714;37.756;2023-04-24T03:20:32;13.99;70.92
75380;HTU21D;65641;44.714;37.756;2023-04-24T03:21:35;14.03;70.86
75380;HTU21D;65641;44.714;37.756;2023-04-24T03:22:38;14.01;70.85
75380;HTU21D;65641;44.714;37.756;2023-04-24T03:23:43;14.04;70.82
75380;HTU21D;65641;44.714;37.756;2023-04-24T03:24:45;14.07;70.81
75380;HTU21D;65641;44.714;37.756;2023-04-24T03:25:51;14.06;70.77
75380;HTU21D;65641;44.714;37.756;2023-04-24T03:26:54;14.09;70.74
75380;HTU21D;65641;44.714;37.756;2023-04-24T03:28:18;14.10;70.72
75380;HTU21D;65641;44.714;37.756;2023-04-24T03:29:33;14.12;70.69
75380;HTU21D;65641;44.714;37.756;2023-04-24T03:30:37;14.13;70.67
75380;HTU21D;65641;44.714;37.756;2023-04-24T03:31:40;14.14;70.65
75380;HTU21D;65641;44.714;37.756;2023-04-24T03:32:43;14.17;70.61
75380;HTU21D;65641;44.714;37.756;2023-04-24T03:33:50;14.19;70.58
75380;HTU21D;65641;44.714;37.756;2023-04-24T03:34:53;14.21;70.58
75380;HTU21D;65641;44.714;37.756;2023-04-24T03:35:56;14.23;70.54
75380;HTU21D;65641;44.714;37.756;2023-04-24T03:37:00;14.25;70.52
75380;HTU21D;65641;44.714;37.756;2023-04-24T03:38:03;14.26;70.47
75380;HTU21D;65641;44.714;37.756;2023-04-24T03:39:35;14.32;70.45
75380;HTU21D;65641;44.714;37.756;2023-04-24T03:40:38;14.35;70.40
75380;HTU21D;65641;44.714;37.756;2023-04-24T03:41:52;14.38;70.36
75380;HTU21D;65641;44.714;37.756;2023-04-24T03:43:00;14.41;70.29
75380;HTU21D;65641;44.714;37.756;2023-04-24T03:44:03;14.43;70.17
75380;HTU21D;65641;44.714;37.756;2023-04-24T03:45:06;14.47;70.10
75380;HTU21D;65641;44.714;37.756;2023-04-24T03:46:13;14.49;69.98
75380;HTU21D;65641;44.714;37.756;2023-04-24T03:47:20;14.52;69.93
75380;HTU21D;65641;44.714;37.756;2023-04-24T03:48:25;14.55;69.79
75380;HTU21D;65641;44.714;37.756;2023-04-24T03:49:28;14.57;69.65
75380;HTU21D;65641;44.714;37.756;2023-04-24T03:50:31;14.60;69.52
75380;HTU21D;65641;44.714;37.756;2023-04-24T03:51:34;14.63;69.39
75380;HTU21D;65641;44.714;37.756;2023-04-24T03:52:58;14.66;69.17
75380;HTU21D;65641;44.714;37.756;2023-04-24T03:54:10;14.69;69.06
75380;HTU21D;65641;44.714;37.756;2023-04-24T03:55:15;14.71;68.92
75380;HTU21D;65641;44.714;37.756;2023-04-24T03:56:21;14.75;68.84
75380;HTU21D;65641;44.714;37.756;2023-04-24T03:57:24;14.79;68.72
75380;HTU21D;65641;44.714;37.756;2023-04-24T03:58:56;14.82;68.60
75380;HTU21D;65641;44.714;37.756;2023-04-24T04:00:00;14.85;68.52
75380;HTU21D;65641;44.714;37.756;2023-04-24T04:01:03;14.88;68.48
75380;HTU21D;65641;44.714;37.756;2023-04-24T04:02:32;14.91;68.29
75380;HTU21D;65641;44.714;37.756;2023-04-24T04:03:36;14.93;68.20
75380;HTU21D;65641;44.714;37.756;2023-04-24T04:04:40;14.97;68.06
75380;HTU21D;65641;44.714;37.756;2023-04-24T04:05:44;14.99;67.95
75380;HTU21D;65641;44.714;37.756;2023-04-24T04:06:47;14.99;67.81
75380;HTU21D;65641;44.714;37.756;2023-04-24T04:07:50;15.00;67.72
75380;HTU21D;65641;44.714;37.756;2023-04-24T04:08:53;15.04;67.65
75380;HTU21D;65641;44.714;37.756;2023-04-24T04:09:56;15.04;67.55
75380;HTU21D;65641;44.714;37.756;2023-04-24T04:10:59;15.07;67.55
75380;HTU21D;65641;44.714;37.756;2023-04-24T04:12:05;15.11;67.51
75380;HTU21D;65641;44.714;37.756;2023-04-24T04:13:09;15.12;67.47
75380;HTU21D;65641;44.714;37.756;2023-04-24T04:14:12;15.13;67.50
75380;HTU21D;65641;44.714;37.756;2023-04-24T04:15:19;15.16;67.55
75380;HTU21D;65641;44.714;37.756;2023-04-24T04:16:24;15.19;67.50
75380;HTU21D;65641;44.714;37.756;2023-04-24T04:17:33;15.23;67.36
75380;HTU21D;65641;44.714;37.756;2023-04-24T04:18:40;15.25;67.30
75380;HTU21D;65641;44.714;37.756;2023-04-24T04:19:43;15.27;67.21
75380;HTU21D;65641;44.714;37.756;2023-04-24T04:20:47;15.29;67.03
75380;HTU21D;65641;44.714;37.756;2023-04-24T04:21:50;15.31;67.09
75380;HTU21D;65641;44.714;37.756;2023-04-24T04:23:05;15.33;67.06
75380;HTU21D;65641;44.714;37.756;2023-04-24T04:24:19;15.37;66.97
75380;HTU21D;65641;44.714;37.756;2023-04-24T04:25:23;15.38;66.91
75380;HTU21D;65641;44.714;37.756;2023-04-24T04:26:26;15.39;66.89
75380;HTU21D;65641;44.714;37.756;2023-04-24T04:27:40;15.42;66.78
75380;HTU21D;65641;44.714;37.756;2023-04-24T04:28:46;15.44;66.68
75380;HTU21D;65641;44.714;37.756;2023-04-24T04:29:50;15.47;66.69
75380;HTU21D;65641;44.714;37.756;2023-04-24T04:30:55;15.49;66.64
75380;HTU21D;65641;44.714;37.756;2023-04-24T04:32:01;15.53;66.54
75380;HTU21D;65641;44.714;37.756;2023-04-24T04:33:04;15.55;66.47
75380;HTU21D;65641;44.714;37.756;2023-04-24T04:34:08;15.57;66.42
75380;HTU21D;65641;44.714;37.756;2023-04-24T04:35:12;15.59;66.36
75380;HTU21D;65641;44.714;37.756;2023-04-24T04:36:15;15.61;66.36
75380;HTU21D;65641;44.714;37.756;2023-04-24T04:37:26;15.65;66.30
75380;HTU21D;65641;44.714;37.756;2023-04-24T04:38:43;15.68;66.17
75380;HTU21D;65641;44.714;37.756;2023-04-24T04:40:05;15.70;66.13
75380;HTU21D;65641;44.714;37.756;2023-04-24T04:41:23;15.74;66.10
75380;HTU21D;65641;44.714;37.756;2023-04-24T04:42:28;15.75;66.04
75380;HTU21D;65641;44.714;37.756;2023-04-24T04:43:31;15.78;65.96
75380;HTU21D;65641;44.714;37.756;2023-04-24T04:44:35;15.82;65.86
75380;HTU21D;65641;44.714;37.756;2023-04-24T04:45:40;15.84;65.76
75380;HTU21D;65641;44.714;37.756;2023-04-24T04:46:57;15.85;65.69
75380;HTU21D;65641;44.714;37.756;2023-04-24T04:48:03;15.88;65.63
75380;HTU21D;65641;44.714;37.756;2023-04-24T04:49:09;15.91;65.55
75380;HTU21D;65641;44.714;37.756;2023-04-24T04:50:13;15.92;65.50
75380;HTU21D;65641;44.714;37.756;2023-04-24T04:51:16;15.95;65.40
75380;HTU21D;65641;44.714;37.756;2023-04-24T04:52:20;15.97;65.28
75380;HTU21D;65641;44.714;37.756;2023-04-24T04:53:32;15.98;65.20
75380;HTU21D;65641;44.714;37.756;2023-04-24T04:54:36;15.99;65.14
75380;HTU21D;65641;44.714;37.756;2023-04-24T04:55:40;16.02;65.11
75380;HTU21D;65641;44.714;37.756;2023-04-24T04:56:50;16.03;65.08
75380;HTU21D;65641;44.714;37.756;2023-04-24T04:57:53;16.06;65.07
75380;HTU21D;65641;44.714;37.756;2023-04-24T04:58:59;16.06;64.94
75380;HTU21D;65641;44.714;37.756;2023-04-24T05:00:02;16.08;64.84
75380;HTU21D;65641;44.714;37.756;2023-04-24T05:01:17;16.08;64.90
75380;HTU21D;65641;44.714;37.756;2023-04-24T05:02:22;16.10;64.87
75380;HTU21D;65641;44.714;37.756;2023-04-24T05:03:25;16.12;64.80
75380;HTU21D;65641;44.714;37.756;2023-04-24T05:04:35;16.11;64.70
75380;HTU21D;65641;44.714;37.756;2023-04-24T05:05:38;16.13;64.63
75380;HTU21D;65641;44.714;37.756;2023-04-24T05:06:47;16.13;64.59
75380;HTU21D;65641;44.714;37.756;2023-04-24T05:07:51;16.14;64.52
75380;HTU21D;65641;44.714;37.756;2023-04-24T05:08:54;16.14;64.54
75380;HTU21D;65641;44.714;37.756;2023-04-24T05:10:23;16.13;64.53
75380;HTU21D;65641;44.714;37.756;2023-04-24T05:11:28;16.13;64.51
75380;HTU21D;65641;44.714;37.756;2023-04-24T05:12:33;16.12;64.53
75380;HTU21D;65641;44.714;37.756;2023-04-24T05:13:37;16.14;64.59
75380;HTU21D;65641;44.714;37.756;2023-04-24T05:15:09;16.13;64.66
75380;HTU21D;65641;44.714;37.756;2023-04-24T05:16:12;16.15;64.70
75380;HTU21D;65641;44.714;37.756;2023-04-24T05:17:16;16.12;64.66
75380;HTU21D;65641;44.714;37.756;2023-04-24T05:18:19;16.11;64.69
75380;HTU21D;65641;44.714;37.756;2023-04-24T05:19:23;16.11;64.70
75380;HTU21D;65641;44.714;37.756;2023-04-24T05:20:26;16.12;64.75
75380;HTU21D;65641;44.714;37.756;2023-04-24T05:21:30;16.13;64.73
75380;HTU21D;65641;44.714;37.756;2023-04-24T05:22:34;16.12;64.75
75380;HTU21D;65641;44.714;37.756;2023-04-24T05:23:38;16.10;64.79
75380;HTU21D;65641;44.714;37.756;2023-04-24T05:24:41;16.11;64.85
75380;HTU21D;65641;44.714;37.756;2023-04-24T05:25:54;16.12;64.82
75380;HTU21D;65641;44.714;37.756;2023-04-24T05:26:58;16.12;64.84
75380;HTU21D;65641;44.714;37.756;2023-04-24T05:28:08;16.11;64.89
75380;HTU21D;65641;44.714;37.756;2023-04-24T05:29:11;16.11;64.95
75380;HTU21D;65641;44.714;37.756;2023-04-24T05:30:14;16.12;64.98
75380;HTU21D;65641;44.714;37.756;2023-04-24T05:31:18;16.12;64.96
75380;HTU21D;65641;44.714;37.756;2023-04-24T05:32:21;16.14;64.95
75380;HTU21D;65641;44.714;37.756;2023-04-24T05:33:25;16.13;64.97
75380;HTU21D;65641;44.714;37.756;2023-04-24T05:34:28;16.15;65.01
75380;HTU21D;65641;44.714;37.756;2023-04-24T05:35:32;16.14;65.08
75380;HTU21D;65641;44.714;37.756;2023-04-24T05:36:36;16.16;65.14
75380;HTU21D;65641;44.714;37.756;2023-04-24T05:37:39;16.17;65.20
75380;HTU21D;65641;44.714;37.756;2023-04-24T05:38:43;16.18;65.21
75380;HTU21D;65641;44.714;37.756;2023-04-24T05:39:46;16.20;65.21
75380;HTU21D;65641;44.714;37.756;2023-04-24T05:40:49;16.20;65.18
75380;HTU21D;65641;44.714;37.756;2023-04-24T05:41:53;16.24;65.20
75380;HTU21D;65641;44.714;37.756;2023-04-24T05:42:56;16.25;65.23
75380;HTU21D;65641;44.714;37.756;2023-04-24T05:43:59;16.27;65.28
75380;HTU21D;65641;44.714;37.756;2023-04-24T05:45:03;16.29;65.27
75380;HTU21D;65641;44.714;37.756;2023-04-24T05:46:07;16.30;65.27
75380;HTU21D;65641;44.714;37.756;2023-04-24T05:47:10;16.32;65.29
75380;HTU21D;65641;44.714;37.756;2023-04-24T05:48:13;16.35;65.28
75380;HTU21D;65641;44.714;37.756;2023-04-24T05:49:16;16.36;65.26
75380;HTU21D;65641;44.714;37.756;2023-04-24T05:50:20;16.40;65.20
75380;HTU21D;65641;44.714;37.756;2023-04-24T05:51:24;16.43;65.15
75380;HTU21D;65641;44.714;37.756;2023-04-24T05:52:27;16.44;65.07
75380;HTU21D;65641;44.714;37.756;2023-04-24T05:53:30;16.47;64.97
75380;HTU21D;65641;44.714;37.756;2023-04-24T05:54:34;16.49;64.88
75380;HTU21D;65641;44.714;37.756;2023-04-24T05:55:37;16.50;64.78
75380;HTU21D;65641;44.714;37.756;2023-04-24T05:56:41;16.54;64.72
75380;HTU21D;65641;44.714;37.756;2023-04-24T05:57:50;16.57;64.65
75380;HTU21D;65641;44.714;37.756;2023-04-24T05:58:54;16.59;64.55
75380;HTU21D;65641;44.714;37.756;2023-04-24T05:59:57;16.60;64.53
75380;HTU21D;65641;44.714;37.756;2023-04-24T06:01:00;16.62;64.46
75380;HTU21D;65641;44.714;37.756;2023-04-24T06:02:04;16.63;64.41
75380;HTU21D;65641;44.714;37.756;2023-04-24T06:03:08;16.65;64.38
75380;HTU21D;65641;44.714;37.756;2023-04-24T06:04:12;16.67;64.35
75380;HTU21D;65641;44.714;37.756;2023-04-24T06:05:16;16.69;64.30
75380;HTU21D;65641;44.714;37.756;2023-04-24T06:06:20;16.72;64.26
75380;HTU21D;65641;44.714;37.756;2023-04-24T06:07:23;16.72;64.16
75380;HTU21D;65641;44.714;37.756;2023-04-24T06:08:26;16.72;64.05
75380;HTU21D;65641;44.714;37.756;2023-04-24T06:09:29;16.72;64.04
75380;HTU21D;65641;44.714;37.756;2023-04-24T06:10:33;16.73;64.02
75380;HTU21D;65641;44.714;37.756;2023-04-24T06:11:36;16.73;64.04
75380;HTU21D;65641;44.714;37.756;2023-04-24T06:12:40;16.74;64.04
75380;HTU21D;65641;44.714;37.756;2023-04-24T06:13:50;16.73;64.04
75380;HTU21D;65641;44.714;37.756;2023-04-24T06:15:13;16.73;64.04
75380;HTU21D;65641;44.714;37.756;2023-04-24T06:16:28;16.72;64.09
75380;HTU21D;65641;44.714;37.756;2023-04-24T06:17:37;16.71;64.12
75380;HTU21D;65641;44.714;37.756;2023-04-24T06:18:41;16.71;64.17
75380;HTU21D;65641;44.714;37.756;2023-04-24T06:19:44;16.72;64.25
75380;HTU21D;65641;44.714;37.756;2023-04-24T06:20:48;16.70;64.27
75380;HTU21D;65641;44.714;37.756;2023-04-24T06:21:52;16.67;64.28
75380;HTU21D;65641;44.714;37.756;2023-04-24T06:22:55;16.69;64.34
75380;HTU21D;65641;44.714;37.756;2023-04-24T06:23:58;16.69;64.37
75380;HTU21D;65641;44.714;37.756;2023-04-24T06:25:01;16.69;64.40
75380;HTU21D;65641;44.714;37.756;2023-04-24T06:26:05;16.69;64.44
75380;HTU21D;65641;44.714;37.756;2023-04-24T06:27:08;16.67;64.50
75380;HTU21D;65641;44.714;37.756;2023-04-24T06:28:12;16.67;64.51
75380;HTU21D;65641;44.714;37.756;2023-04-24T06:29:15;16.66;64.56
75380;HTU21D;65641;44.714;37.756;2023-04-24T06:30:18;16.65;64.59
75380;HTU21D;65641;44.714;37.756;2023-04-24T06:31:21;16.66;64.61
75380;HTU21D;65641;44.714;37.756;2023-04-24T06:32:25;16.65;64.63
75380;HTU21D;65641;44.714;37.756;2023-04-24T06:33:28;16.65;64.62
75380;HTU21D;65641;44.714;37.756;2023-04-24T06:34:31;16.66;64.60
75380;HTU21D;65641;44.714;37.756;2023-04-24T06:35:36;16.64;64.63
75380;HTU21D;65641;44.714;37.756;2023-04-24T06:36:41;16.65;64.64